Omaha, NE

4:53 PM CST on February 22, 2017 (GMT -0600)
Millard Municipal

Weather History for KMLE - November, 2012

Change the Weather History Date:

Thursday, November 29, 2012

  Actual Average (KOFF) Record (KOFF)
Temperature  
Mean Temperature 40 °F -  
Max Temperature 54 °F 43 °F 71 °F (1998)
Min Temperature 26 °F 26 °F 13 °F (2013)
Degree Days  
Heating Degree Days 25    
Moisture  
Dew Point 32 °F    
Average Humidity 81    
Maximum Humidity 97    
Minimum Humidity 53    
Precipitation  
Precipitation 0.00 in - - ()
Sea Level Pressure  
Sea Level Pressure 29.99 in    
Wind  
Wind Speed 2 mph (SSE)    
Max Wind Speed 8 mph    
Max Gust Speed -    
Visibility 10 miles    
Events      
Averages and records for this station are not official NWS values.
T = Trace of Precipitation, MM = Missing Value Source: NWS Daily Summary

Daily Weather History Graph

Daily Weather History Graph

Search for Another Location

Airport or City:

Trip Planner

Search our weather history database for the weather conditions in past years. The results will help you decide how hot, cold, wet, or windy it might be!

Date:

Astronomy

Nov. 29, 2012 Rise Set
Actual Time 7:29 AM CST 4:56 PM CST
Civil Twilight 6:58 AM CST 5:27 PM CST
Nautical Twilight 6:24 AM CST 6:01 PM CST
Astronomical Twilight 5:51 AM CST 6:34 PM CST
Moon 6:00 PM CST (11/29) 8:16 AM CST (11/29)
Length of Visible Light 10h 28m
Length of Day
9h 27m
Full, 99% of the Moon is Illuminated
Nov 29
Full
Dec 6
Last Quarter
Dec 13
New
Dec 19
First Quarter
Dec 28
Full

Hourly Weather History & Observations

Time (CST) Temp. Windchill Dew Point Humidity Pressure Visibility Wind Dir Wind Speed Gust Speed Precip Events Conditions
12:15 AM 32.5 °F 29.3 °F 27.9 °F 83% 30.09 in 10.0 mi SE 3.5 mph - N/A   Clear
12:35 AM 33.1 °F - 28.0 °F 82% 30.09 in 10.0 mi Calm Calm - N/A   Clear
12:55 AM 32.0 °F - 27.7 °F 84% 30.09 in 10.0 mi Calm Calm - N/A   Clear
1:15 AM 32.0 °F - 27.5 °F 83% 30.08 in 10.0 mi Calm Calm - N/A   Clear
1:35 AM 30.6 °F 25.8 °F 27.1 °F 87% 30.07 in 10.0 mi SSE 4.6 mph - N/A   Clear
1:55 AM 32.0 °F 27.5 °F 27.9 °F 85% 30.06 in 10.0 mi SE 4.6 mph - N/A   Clear
2:15 AM 32.5 °F 28.1 °F 28.0 °F 83% 30.06 in 10.0 mi SE 4.6 mph - N/A   Clear
2:35 AM 31.1 °F - 27.3 °F 86% 30.06 in 10.0 mi Calm Calm - N/A   Clear
2:55 AM 31.3 °F - 27.3 °F 85% 30.07 in 10.0 mi Calm Calm - N/A   Clear
3:35 AM 28.4 °F - 26.2 °F 92% 30.05 in 10.0 mi Calm Calm - N/A   Clear
3:55 AM 28.6 °F - 26.8 °F 93% 30.05 in 10.0 mi Calm Calm - N/A   Clear
4:15 AM 28.8 °F - 27.3 °F 94% 30.04 in 10.0 mi Calm Calm - N/A   Clear
4:35 AM 28.0 °F - 26.8 °F 95% 30.03 in 10.0 mi Calm Calm - N/A   Clear
4:55 AM 28.4 °F - 27.3 °F 96% 30.03 in 10.0 mi Calm Calm - N/A   Clear
5:15 AM 28.2 °F - 26.4 °F 93% 30.03 in 10.0 mi Calm Calm - N/A   Clear
5:35 AM 28.2 °F - 27.0 °F 95% 30.03 in 10.0 mi Calm Calm - N/A   Clear
5:55 AM 28.2 °F - 27.0 °F 95% 30.03 in 10.0 mi Calm Calm - N/A   Clear
6:15 AM 27.5 °F - 26.4 °F 96% 30.02 in 10.0 mi Calm Calm - N/A   Clear
6:35 AM 27.3 °F - 26.2 °F 96% 30.01 in 10.0 mi Calm Calm - N/A   Clear
6:55 AM 27.3 °F - 26.6 °F 97% 30.01 in 10.0 mi Calm Calm - N/A   Clear
7:15 AM 26.8 °F - 26.1 °F 97% 30.01 in 10.0 mi Calm Calm - N/A   Clear
7:35 AM 27.1 °F - 26.2 °F 96% 30.02 in 10.0 mi Calm Calm - N/A   Clear
7:55 AM 27.3 °F - 26.6 °F 97% 30.02 in 10.0 mi Calm Calm - N/A   Clear
8:15 AM 27.5 °F - 26.8 °F 97% 30.02 in 10.0 mi Calm Calm - N/A   Clear
8:35 AM 29.3 °F - 28.4 °F 96% 30.03 in 10.0 mi Calm Calm - N/A   Clear
8:55 AM 30.7 °F - 29.3 °F 94% 30.02 in 10.0 mi Calm Calm - N/A   Clear
9:15 AM 33.1 °F - 31.5 °F 94% 30.02 in 10.0 mi Calm Calm - N/A   Clear
9:35 AM 34.9 °F 32.0 °F 32.0 °F 89% 30.02 in 10.0 mi SE 3.5 mph - N/A   Clear
10:15 AM 39.0 °F 36.8 °F 33.6 °F 81% 30.02 in 10.0 mi SSE 3.5 mph - N/A   Clear
10:35 AM 41.2 °F 39.2 °F 34.2 °F 76% 30.01 in 10.0 mi SSE 3.5 mph - N/A   Clear
10:55 AM 42.8 °F 41.1 °F 34.2 °F 72% 30.02 in 10.0 mi SW 3.5 mph - N/A   Clear
11:15 AM 43.9 °F - 34.7 °F 70% 30.01 in 10.0 mi Calm Calm - N/A   Clear
11:55 AM 46.0 °F - 35.2 °F 66% 29.98 in 10.0 mi Calm Calm - N/A   Clear
12:15 PM 48.0 °F - 35.6 °F 62% 29.97 in 10.0 mi South 3.5 mph - N/A   Clear
12:35 PM 49.3 °F - 35.6 °F 59% 29.97 in 10.0 mi South 3.5 mph - N/A   Clear
12:55 PM 50.5 °F - 36.1 °F 58% 29.96 in 10.0 mi SSE 4.6 mph - N/A   Clear
1:15 PM 51.4 °F - 36.1 °F 56% 29.95 in 10.0 mi SSE 5.8 mph - N/A   Clear
1:35 PM 51.8 °F - 36.0 °F 55% 29.94 in 10.0 mi SSE 3.5 mph - N/A   Clear
1:55 PM 52.3 °F - 36.1 °F 54% 29.94 in 10.0 mi SSE 4.6 mph - N/A   Clear
2:15 PM 52.9 °F - 36.9 °F 55% 29.93 in 10.0 mi SSE 3.5 mph - N/A   Clear
2:35 PM 53.6 °F - 37.0 °F 53% 29.93 in 10.0 mi SSW 3.5 mph - N/A   Clear
2:55 PM 54.1 °F - 37.6 °F 54% 29.92 in 10.0 mi SSE 4.6 mph - N/A   Clear
3:15 PM 54.5 °F - 37.9 °F 54% 29.91 in 10.0 mi SE 6.9 mph - N/A   Clear
3:35 PM 54.5 °F - 37.6 °F 53% 29.92 in 10.0 mi SSE 8.1 mph - N/A   Clear
3:55 PM 53.8 °F - 37.4 °F 54% 29.92 in 10.0 mi SSE 5.8 mph - N/A   Clear
4:15 PM 52.9 °F - 37.4 °F 56% 29.93 in 10.0 mi SE 5.8 mph - N/A   Clear
4:35 PM 50.5 °F - 37.0 °F 60% 29.92 in 10.0 mi ESE 4.6 mph - N/A   Clear
4:55 PM 50.2 °F - 37.4 °F 62% 29.92 in 10.0 mi Calm Calm - N/A   Clear
5:15 PM 47.7 °F - 36.7 °F 66% 29.92 in 10.0 mi SSE 3.5 mph - N/A   Clear
5:35 PM 46.2 °F 45.0 °F 36.5 °F 69% 29.92 in 10.0 mi SE 3.5 mph - N/A   Clear
5:55 PM 44.1 °F 41.5 °F 36.0 °F 73% 29.92 in 10.0 mi SE 4.6 mph - N/A   Clear
6:15 PM 44.6 °F 43.1 °F 36.0 °F 72% 29.93 in 10.0 mi SE 3.5 mph - N/A   Clear
6:35 PM 43.3 °F - 35.2 °F 73% 29.94 in 10.0 mi Calm Calm - N/A   Clear
6:55 PM 39.2 °F - 34.0 °F 82% 29.95 in 10.0 mi Calm Calm - N/A   Clear
7:15 PM 38.5 °F - 33.8 °F 83% 29.95 in 10.0 mi Calm Calm - N/A   Clear
7:35 PM 37.9 °F - 34.0 °F 86% 29.96 in 10.0 mi Calm Calm - N/A   Clear
7:55 PM 36.7 °F - 33.1 °F 87% 29.96 in 10.0 mi Calm Calm - N/A   Clear
8:15 PM 36.0 °F - 33.4 °F 91% 29.95 in 10.0 mi Calm Calm - N/A   Clear
8:35 PM 37.2 °F - 34.7 °F 91% 29.95 in 10.0 mi Calm Calm - N/A   Clear
8:55 PM 37.0 °F - 32.9 °F 85% 29.94 in 10.0 mi Calm Calm - N/A   Clear
9:15 PM 34.3 °F - 32.0 °F 91% 29.94 in 10.0 mi Calm Calm - N/A   Clear
9:35 PM 34.3 °F 31.4 °F 32.2 °F 92% 29.93 in 10.0 mi ESE 3.5 mph - N/A   Clear
9:55 PM 35.6 °F - 33.3 °F 91% 29.94 in 10.0 mi Calm Calm - N/A   Clear
10:15 PM 33.4 °F - 32.0 °F 94% 29.95 in 10.0 mi Calm Calm - N/A   Clear
10:35 PM 33.8 °F - 32.0 °F 93% 29.95 in 10.0 mi Calm Calm - N/A   Clear
10:55 PM 32.9 °F - 31.8 °F 96% 29.95 in 7.0 mi Calm Calm - N/A   Clear
11:15 PM 32.5 °F - 31.8 °F 97% 29.95 in 10.0 mi Calm Calm - N/A   Clear
11:35 PM 32.0 °F - 30.9 °F 96% 29.94 in 7.0 mi Calm Calm - N/A   Clear
11:55 PM 32.0 °F - 31.1 °F 96% 29.95 in 7.0 mi Calm Calm - N/A   Clear